デリー の空港の天気 - METARとTAF

インディラ・ガンディー国際空港 ( VIDP / DEL ) - インド デリー
飛行場実況気象(Metar)
観測時間10/19 23:30 IST (10/19 18:00 UTC)
風向・風速静穏 0m/s
視程2500m
天気現象煙霧
少しの雲 雲底高度 3050m
気温25℃
湿度57%
気圧1014hPa
METARVIDP 191800Z 00000KT 2500 HZ FEW100 25/16 Q1014 NOSIG
過去の天気等 Google飛行場航空写真 Wunderground天気予報

過去48時間のMETAR

飛行場予報(TAF)
発表時間: 10/19 22:30 IST (10/19 17:00 UTC)
予報対象時間: 19日23時 IST ~ 21日5時 IST
風向・風速北東 2m/s
視程2500m
天気現象煙霧 もや
少しの雲 雲底高度 3050m
20日5時 IST ~ 20日7時 IST に徐々に
風向・風速静穏
視程1500m
天気現象もや
なし
20日11時 IST ~ 20日13時 IST に徐々に
風向・風速東 3m/s
視程3500m
天気現象煙霧
少しの雲 雲底高度 1220m
全天の4割程度の雲 雲底高度 3050m
20日20時 IST ~ 20日22時 IST に徐々に
風向・風速東南東 2m/s
視程2500m
天気現象煙霧 もや
なし
21日3時 IST ~ 21日4時 IST に徐々に
風向・風速静穏
視程1500m
天気現象もや
TAF VIDP 191700Z 1918/2024 05004KT 2500 HZ BR FEW100
BECMG 2000/2002 00000KT 1500 BR NSC
BECMG 2006/2008 09006KT 3500 HZ FEW040 SCT100
BECMG 2015/2017 12003KT 2500 HZ BR NSC
BECMG 2022/2023 00000KT 1500 BR